Latest Coastal Weather Observations for Cape Grim

IDT60701

Issued at 1:41 pm EST Monday 2 May 2016 (issued every 10 minutes, with the page automatically refreshed every 10 minutes)

About coastal observations | Map of coastal stations | Coastal observations for TAS | Marine services | Other Formats
Station Details ID: 091331 Name: CAPE GRIM Lat: -40.68 Lon: 144.69 Height: 86.0 m
Data from the previous 72 hours. | See also: Recent months at Cape Grim
Date/Time
EST
Temp

°C
Wind Pressure Rain
since 9am
mm
Weather Cloud Vis
km
Sea
Height
m
Swell
Dir
 
Speed
knots
Gust
knots
hPa Trend Height
m
Period
s
Dir
02/01:30pm 14.8 NW 30 41 1003.0 - 0.2 - - - - - - -
02/01:00pm 15.4 NW 30 41 1003.3 - 0.2 - - - - - - -
02/12:30pm 15.2 NW 27 38 1003.8 - 0.2 - - - - - - -
02/12:02pm 14.6 NW 27 38 1004.4 - 0.2 - - - - - - -
02/12:00pm 14.7 NW 28 36 1004.5 - 0.2 Recent precip. - - - - - -
02/11:30am 13.9 NW 28 40 1004.8 - 0.2 - - - - - - -
02/11:00am 14.0 NW 25 35 1005.0 - 0.0 - - - - - - -
02/10:33am 14.0 NW 25 35 1005.2 - 0.0 - - - - - - -
02/10:30am 14.0 NW 26 35 1005.4 - 0.0 - - - - - - -
02/10:00am 14.8 NW 25 39 1005.4 - 0.0 - - - - - - -
02/09:53am 14.4 NW 23 33 1005.5 - 0.0 - - - - - - -
02/09:30am 14.1 NW 22 27 1005.9 - 0.0 - - - - - - -
02/09:00am 14.0 WNW 23 30 1006.2 - 3.0 - - - - - - -
02/08:30am 12.7 WNW 23 33 1006.6 - 3.0 - - - - - - -
02/08:00am 14.0 WNW 20 26 1006.5 - 3.0 - - - - - - -
02/07:30am 14.0 WNW 24 32 1006.5 - 3.0 - - - - - - -
02/07:26am 13.8 WNW 22 32 1006.5 - 3.0 - - - - - - -
02/07:00am 13.5 WNW 22 29 1006.7 - 3.0 - - - - - - -
02/06:30am 13.2 WNW 25 33 1006.7 - 3.0 - - - - - - -
02/06:00am 12.9 W 23 29 1006.9 - 3.0 Rain - - - - - -
02/05:47am 12.9 W 22 32 1007.0 - 2.8 - - - - - - -
02/05:30am 13.3 W 23 30 1007.1 - 2.8 - - - - - - -
02/05:10am 13.3 W 25 35 1007.1 - 2.8 - - - - - - -
02/05:00am 13.3 W 23 31 1007.1 - 2.8 - - - - - - -
02/04:30am 13.1 W 23 31 1007.1 - 2.8 - - - - - - -
02/04:19am 12.7 WNW 22 32 1007.2 - 2.8 - - - - - - -
02/04:00am 12.5 WNW 26 32 1007.3 - 2.8 - - - - - - -
02/03:30am 13.0 W 21 31 1007.6 - 2.8 - - - - - - -
02/03:00am 12.8 W 19 29 1007.8 - 2.8 - - - - - - -
02/02:35am 12.6 W 19 29 1008.0 - 2.8 - - - - - - -
02/02:30am 12.6 W 19 27 1008.1 - 2.8 - - - - - - -
02/02:00am 12.4 W 21 31 1008.2 - 2.8 - - - - - - -
02/01:39am 12.0 W 20 30 1008.4 - 2.8 - - - - - - -
02/01:30am 11.8 W 19 28 1008.4 - 2.8 - - - - - - -
02/01:00am 12.7 W 21 32 1008.3 - 2.8 - - - - - - -
02/12:30am 12.5 W 22 33 1008.3 - 2.8 - - - - - - -
02/12:19am 12.4 W 21 31 1008.4 - 2.8 - - - - - - -
02/12:00am 12.2 W 20 27 1008.7 - 2.8 Recent precip. - - - - - -
 
Date/Time
EST
Temp

°C
Wind Pressure Rain
since 9am
mm
Weather Cloud Vis
km
Sea
Height
m
Swell
Dir
 
Speed
knots
Gust
knots
hPa Trend Height
m
Period
s
Dir
01/11:30pm 11.8 W 20 31 1008.8 - 2.8 - - - - - - -
01/11:00pm 10.9 W 23 35 1008.8 - 2.6 - - - - - - -
01/10:30pm 12.2 W 20 33 1008.8 - 2.6 - - - - - - -
01/10:00pm 12.1 W 23 33 1008.8 - 2.6 - - - - - - -
01/09:30pm 12.8 W 22 35 1008.3 - 2.6 - - - - - - -
01/09:00pm 12.5 WSW 17 29 1008.1 - 2.6 - - - - - - -
01/08:30pm 12.6 WSW 18 33 1007.9 - 2.6 - - - - - - -
01/08:00pm 12.7 WSW 20 33 1007.6 - 2.6 - - - - - - -
01/07:30pm 12.5 WSW 23 43 1007.3 - 2.6 - - - - - - -
01/07:00pm 12.7 WSW 21 37 1006.9 - 2.6 - - - - - - -
01/06:30pm 12.9 WSW 24 42 1006.3 - 2.6 - - - - - - -
01/06:00pm 12.9 WSW 23 39 1005.8 - 2.6 - - - - - - -
01/05:30pm 12.9 WSW 23 39 1005.1 - 2.6 - - - - - - -
01/05:00pm 12.9 WSW 25 41 1004.6 - 2.6 - - - - - - -
01/04:30pm 13.2 WSW 27 45 1004.0 - 2.6 - - - - - - -
01/04:17pm 13.3 WSW 28 45 1003.8 - 2.6 - - - - - - -
01/04:07pm 13.2 WSW 29 51 1003.4 - 2.6 - - - - - - -
01/04:00pm 13.3 WSW 24 44 1003.1 - 2.6 - - - - - - -
01/03:30pm 13.1 SW 28 47 1002.4 - 2.6 - - - - - - -
01/03:00pm 11.8 WSW 27 47 1002.0 - 2.4 Recent precip. - - - - - -
01/02:30pm 12.3 WSW 30 46 1001.0 - 2.4 - - - - - - -
01/02:00pm 13.4 W 26 39 1000.5 - 2.2 - - - - - - -
01/01:30pm 13.1 WSW 27 47 999.8 - 2.2 - - - - - - -
01/01:00pm 12.6 WSW 21 43 999.5 - 2.2 - - - - - - -
01/12:30pm 13.0 WSW 23 43 999.1 - 2.0 - - - - - - -
01/12:00pm 12.7 WSW 27 47 998.6 - 2.0 Recent precip. - - - - - -
01/11:30am 11.8 SW 35 53 997.4 - 2.0 - - - - - - -
01/11:00am 11.6 W 37 58 996.7 - 1.0 - - - - - - -
01/10:30am 11.8 W 38 57 995.3 - 0.2 - - - - - - -
01/10:00am 12.4 W 39 58 993.6 - 0.0 - - - - - - -
01/09:48am 12.7 W 33 51 993.4 - 0.0 - - - - - - -
01/09:30am 14.2 W 31 41 993.5 - 0.0 - - - - - - -
01/09:17am 14.5 WNW 29 39 993.3 - 0.0 - - - - - - -
01/09:00am 14.3 NW 26 35 993.3 - 7.2 - - - - - - -
01/08:36am 14.9 NNW 29 39 993.4 - 7.2 - - - - - - -
01/08:30am 14.7 NNW 29 37 993.4 - 7.2 - - - - - - -
01/08:02am 14.4 N 30 40 994.1 - 7.2 - - - - - - -
01/08:00am 14.4 N 30 39 994.2 - 7.2 - - - - - - -
01/07:38am 14.6 N 26 37 994.7 - 7.2 - - - - - - -
01/07:30am 14.1 N 25 33 994.7 - 7.2 - - - - - - -
01/07:12am 15.1 N 21 34 995.1 - 7.0 - - - - - - -
01/07:00am 15.0 NNE 19 24 995.5 - 7.0 - - - - - - -
01/06:30am 14.6 NNE 19 23 996.4 - 6.8 - - - - - - -
01/06:00am 14.0 NE 18 21 996.6 - 6.8 Recent precip. - - - - - -
01/05:30am 14.1 N 17 22 997.4 - 6.6 - - - - - - -
01/05:00am 14.3 N 17 24 998.6 - 6.2 - - - - - - -
01/04:30am 14.3 NNW 16 23 999.4 - 5.4 - - - - - - -
01/04:00am 13.7 NW 19 25 999.9 - 5.2 - - - - - - -
01/03:30am 13.2 WNW 22 29 1000.3 - 4.6 - - - - - - -
01/03:15am 13.7 WNW 21 33 1000.6 - 4.4 - - - - - - -
01/03:09am 14.4 W 13 29 1001.2 - 3.6 - - - - - - -
01/03:00am 14.6 WNW 12 19 999.7 - 3.0 Recent precip. - - - - - -
01/02:30am 13.7 NNW 7 9 1000.3 - 3.0 - - - - - - -
01/02:07am 13.4 NW 18 28 1001.2 - 3.0 - - - - - - -
01/02:00am 13.4 WNW 23 36 1001.6 - 2.6 - - - - - - -
01/01:55am 14.1 NW 28 43 1001.9 - 2.4 - - - - - - -
01/01:51am 15.1 N 30 43 1001.8 - 2.4 - - - - - - -
01/01:50am 15.4 N 30 43 1001.8 - 2.4 - - - - - - -
01/01:49am 16.1 N 30 43 1001.7 - 2.4 - - - - - - -
01/01:44am 17.9 N 27 36 999.6 - 2.4 - - - - - - -
01/01:36am 17.6 N 20 30 1000.1 - 2.4 - - - - - - -
01/01:30am 17.3 N 20 26 1000.5 - 2.4 - - - - - - -
01/01:14am 17.3 N 15 25 1000.9 - 2.4 - - - - - - -
01/01:00am 17.1 N 15 19 1002.3 - 1.6 - - - - - - -
01/12:40am 17.2 N 23 33 1002.3 - 0.6 - - - - - - -
01/12:30am 17.4 NNE 22 26 1002.1 - 0.2 - - - - - - -
01/12:00am 16.5 NNE 19 22 1002.8 - 0.2 - - - - - - -
 
Date/Time
EST
Temp

°C
Wind Pressure Rain
since 9am
mm
Weather Cloud Vis
km
Sea
Height
m
Swell
Dir
 
Speed
knots
Gust
knots
hPa Trend Height
m
Period
s
Dir
30/11:30pm 16.2 NNE 18 21 1004.0 - 0.2 - - - - - - -
30/11:00pm 16.1 NE 16 19 1005.2 - 0.2 - - - - - - -
30/10:30pm 15.6 NE 14 16 1006.1 - 0.2 - - - - - - -
30/10:00pm 15.3 NE 13 15 1006.8 - 0.0 - - - - - - -
30/09:30pm 15.4 NE 12 14 1007.1 - 0.0 - - - - - - -
30/09:00pm 15.3 NE 11 13 1007.4 - 0.0 - - - - - - -
30/08:30pm 15.2 NE 11 13 1007.5 - 0.0 - - - - - - -
30/08:00pm 15.2 NE 11 13 1007.6 - 0.0 - - - - - - -
30/07:30pm 14.9 NE 9 11 1007.9 - 0.0 - - - - - - -
30/07:00pm 15.0 NNE 7 9 1008.1 - 0.0 - - - - - - -
30/06:30pm 15.5 N 8 9 1008.0 - 0.0 - - - - - - -
30/06:00pm 16.0 N 8 10 1008.0 - 0.0 - - - - - - -
30/05:30pm 16.5 N 10 13 1008.2 - 0.0 - - - - - - -
30/05:00pm 16.9 N 12 15 1008.2 - 0.0 - - - - - - -
30/04:30pm 17.5 N 11 14 1008.2 - 0.0 - - - - - - -
30/04:00pm 17.7 N 13 16 1008.6 - 0.0 - - - - - - -
30/03:30pm 17.9 N 13 18 1008.7 - 0.0 - - - - - - -
30/03:00pm 18.2 N 15 19 1008.7 - 0.0 - - - - - - -
30/02:30pm 18.5 N 13 17 1009.0 - 0.0 - - - - - - -
30/02:00pm 18.6 N 16 21 1009.1 - 0.0 - - - - - - -
30/01:30pm 18.7 N 15 19 1009.3 - 0.0 - - - - - - -
30/01:00pm 18.6 N 16 19 1009.5 - 0.0 - - - - - - -
30/12:30pm 17.6 NNW 15 19 1010.1 - 0.0 - - - - - - -
30/12:00pm 17.9 N 15 18 1010.5 - 0.0 - - - - - - -
30/11:30am 18.1 NNW 15 20 1010.7 - 0.0 - - - - - - -
30/11:00am 18.2 NNW 16 20 1010.9 - 0.0 - - - - - - -
30/10:30am 17.5 NNW 16 21 1011.3 - 0.0 - - - - - - -
30/10:00am 17.1 N 18 23 1011.4 - 0.0 - - - - - - -
30/09:30am 17.1 N 18 22 1011.5 - 0.0 - - - - - - -
30/09:00am 16.9 N 18 23 1011.5 - 7.8 - - - - - - -
30/08:30am 16.6 N 17 23 1011.5 - 7.8 - - - - - - -
30/08:00am 16.4 N 16 21 1011.5 - 7.8 - - - - - - -
30/07:30am 16.0 N 15 18 1011.1 - 7.8 - - - - - - -
30/07:00am 15.6 N 13 16 1011.0 - 7.8 - - - - - - -
30/06:30am 15.7 N 15 18 1010.8 - 7.8 - - - - - - -
30/06:00am 15.6 N 15 19 1010.9 - 7.8 - - - - - - -
30/05:30am 15.6 N 14 18 1011.0 - 7.8 - - - - - - -
30/05:00am 15.6 N 13 17 1011.1 - 7.8 - - - - - - -
30/04:30am 15.7 N 14 17 1011.0 - 7.8 - - - - - - -
30/04:00am 15.6 N 13 16 1011.0 - 7.8 - - - - - - -
30/03:30am 15.6 NNW 12 16 1010.8 - 7.8 - - - - - - -
30/03:00am 15.6 NNW 13 16 1011.0 - 7.8 - - - - - - -
30/02:30am 15.6 NNW 15 17 1011.1 - 7.8 - - - - - - -
30/02:00am 15.8 NNW 17 21 1011.5 - 7.8 - - - - - - -
30/01:30am 15.7 NNW 17 20 1011.5 - 7.8 - - - - - - -
30/01:00am 15.7 NNW 17 21 1011.6 - 7.8 - - - - - - -
30/12:30am 15.7 NNW 17 20 1011.7 - 7.8 - - - - - - -
30/12:00am 15.6 NNW 17 21 1011.7 - 7.8 - - - - - - -
 
Date/Time
EST
Temp

°C
Wind Pressure Rain
since 9am
mm
Weather Cloud Vis
km
Sea
Height
m
Swell
Dir
 
Speed
knots
Gust
knots
hPa Trend Height
m
Period
s
Dir
29/11:30pm 15.6 NNW 16 19 1012.0 - 7.8 - - - - - - -
29/11:00pm 15.6 NNW 17 20 1012.0 - 7.8 - - - - - - -
29/10:30pm 15.5 NNW 16 19 1012.2 - 7.8 - - - - - - -
29/10:00pm 15.6 NW 15 20 1012.2 - 7.8 - - - - - - -
29/09:30pm 15.5 NW 16 19 1011.9 - 7.8 - - - - - - -
29/09:00pm 15.3 NW 15 18 1011.8 - 7.8 - - - - - - -
29/08:30pm 15.5 NW 15 19 1011.8 - 7.8 - - - - - - -
29/08:00pm 15.5 NW 17 23 1011.6 - 7.8 - - - - - - -
29/07:30pm 15.7 NW 18 22 1011.6 - 7.8 - - - - - - -
29/07:00pm 15.6 NW 16 24 1011.3 - 7.8 - - - - - - -
29/06:30pm 15.6 NW 19 24 1011.0 - 7.8 - - - - - - -
29/06:00pm 15.7 NW 18 23 1010.6 - 7.8 Recent precip. - - - - - -
29/05:30pm 15.9 NNW 20 24 1010.3 - 7.6 - - - - - - -
29/05:00pm 15.7 N 16 22 1010.0 - 7.2 - - - - - - -
29/04:30pm 15.6 NNW 18 23 1010.3 - 6.6 - - - - - - -
29/04:00pm 15.7 N 18 25 1010.0 - 6.4 - - - - - - -
29/03:30pm 15.8 NNW 19 24 1010.0 - 6.0 - - - - - - -
29/03:00pm 15.9 NNW 21 26 1010.1 - 5.6 Rain - - - - - -
29/02:30pm 16.0 NNW 20 25 1010.2 - 5.0 - - - - - - -
29/02:00pm 16.1 NNW 22 26 1010.1 - 4.4 - - - - - - -

Other Formats:

Comma delimited format used in spreadsheet applications
http://www.bom.gov.au/fwo/IDT60701/IDT60701.95954.axf

JavaScript Object Notation format (JSON) in row-major order
http://www.bom.gov.au/fwo/IDT60701/IDT60701.95954.json